Terminal Aerodrome Forecast
Issued by NWS Wilmington, NC

Home | Current Version | Previous Version | Text Only | Print | Product List | Glossary On
Versions: 1 2 3 4 5 6 7 8 9 10 11 12 13 14 15
000
FTUS42 KILM 191226 AAA
TAFLBT
TAF AMD
KLBT 191226Z 1912/2012 28003KT P6SM SCT006
      TEMPO 1912/1914 BKN006
     FM191600 27006KT P6SM VCTS FEW035CB SCT050
     FM192300 VRB02KT P6SM SCT250
      TEMPO 2008/2012 00000KT 3SM BR=

USA.gov is the U.S. government's official web portal to all federal, state and local government web resources and services.